Impacts METAR Board
IDs:

KBOS - Boston/Logan Intl, MA, US

Updated at: 1500 UTC 23 May 2018
Potential Impact None Slight Moderate High
Time 23/03Z 23/04Z 23/05Z 23/06Z 23/07Z 23/08Z 23/09Z 23/10Z 23/11Z 23/12Z 23/13Z 23/14Z 23/15Z
Temp54 54 54 54 54 55 55 56 59 62 65 69 71
Dewpt50 50 50 51 51 52 52 53 55 55 56 56 55
Altim29.97 29.95 29.93 29.90 29.88 29.87 29.87 29.87 29.87 29.87 29.86 29.86 29.87
VIS10 10 10 10 10 10 10 10 10 10 10 10 10
CIG34 30 25 23 13 11 11 110 250 -- 21 -- --
CoverOVCOVCOVCOVCOVCOVCOVCBKNBKNFEWBKNFEWFEW
FltCatVFRMVFRMVFRMVFRMVFRMVFRMVFRVFRVFRVFRMVFRVFRVFR
WX--------------------------
WDir190210200220210230220220240280290320330
WSpd11 10 7 10 6 8 8 8 4 7 12 10 9
WGst-- -- -- -- -- -- -- -- -- -- 16 -- --
Raw hourly METARs
KBOS 230254Z 19011KT 10SM FEW023 OVC034 12/10 A2997 RMK AO2 SLP148 60001 T01220100 58018
KBOS 230354Z 21010KT 10SM FEW011 OVC030 12/10 A2995 RMK AO2 SLP143 T01220100
KBOS 230454Z 20007KT 10SM FEW011 OVC025 12/10 A2993 RMK AO2 SLP133 T01220100 401940122
KBOS 230554Z 22010KT 10SM FEW011 OVC023 12/11 A2990 RMK AO2 SLP125 60001 T01220106 10144 20122 58023
KBOS 230656Z 21006KT 10SM OVC013 12/11 A2988 RMK AO2 T01220106
KBOS 230754Z 23008KT 10SM OVC011 13/11 A2987 RMK AO2 SLP114 T01280111
KBOS 230854Z 22008KT 10SM OVC011 13/11 A2987 RMK AO2 SLP114 T01280111 55012
KBOS 231005Z 22008KT 10SM FEW011 BKN110 BKN250 13/12 A2987 RMK AO2 T01330117
KBOS 231054Z 24004KT 10SM SCT120 BKN250 15/13 A2987 RMK AO2 SLP114 T01500128
KBOS 231154Z 28007KT 10SM FEW030 FEW120 FEW250 17/13 A2987 RMK AO2 SLP113 70003 T01670128 10167 20122 58001
KBOS 231254Z 29012G16KT 10SM BKN021 BKN120 BKN250 18/13 A2986 RMK AO2 SLP112 T01830133
KBOS 231354Z 32010KT 10SM FEW026 FEW250 21/13 A2986 RMK AO2 SLP112 T02060133
KBOS 231454Z 33009KT 10SM FEW030 FEW250 22/13 A2987 RMK AO2 SLP115 T02170128 53002



Page loaded:  15:12 UTC  |   08:12 AM Pacific  |   09:12 AM Mountain  |   10:12 AM Central  |   11:12 AM Eastern

 

ADVISORIES

FORECASTS

FORECASTS

OBSERVATIONS

USER TOOLS

ABOUT US